Time;durP1;ratioP1;P1;durP2;ratioP2;P2;SDS_P1;SDS_P2;PMS_P1;PMS_P2;Temp;Humidity;BMP_temperature;BMP_pressure;BME280_temperature;BME280_humidity;BME280_pressure;Samples;Min_cycle;Max_cycle;Signal;HPM_P1;HPM_P2
2024/04/09 00:01:04;;;;;;;0.30;0.30;;;13.20;99.90;;;;;;5346333;26;20000;-76
2024/04/09 00:03:32;;;;;;;0.35;0.35;;;13.10;99.90;;;;;;5377074;26;20000;-76
2024/04/09 00:05:59;;;;;;;0.22;0.22;;;13.10;99.90;;;;;;5377987;26;20040;-76
2024/04/09 00:08:27;;;;;;;0.28;0.28;;;13.10;99.90;;;;;;5344989;26;20000;-75
2024/04/09 00:10:56;;;;;;;0.32;0.32;;;13.20;99.90;;;;;;5347594;26;20683;-74
2024/04/09 00:13:23;;;;;;;0.30;0.30;;;13.20;99.90;;;;;;5376756;26;20032;-75
2024/04/09 00:15:50;;;;;;;0.80;0.80;;;13.10;99.90;;;;;;5372316;26;20043;-75
2024/04/09 00:18:17;;;;;;;0.30;0.30;;;13.20;99.90;;;;;;5378225;26;20031;-81
2024/04/09 00:20:48;;;;;;;0.50;0.50;;;13.20;99.90;;;;;;5376352;26;20064;-80
2024/04/09 00:23:18;;;;;;;0.32;0.32;;;13.20;99.90;;;;;;5377740;26;20032;-79
2024/04/09 00:25:45;;;;;;;0.30;0.30;;;13.20;99.90;;;;;;5403313;26;20494;-81
2024/04/09 00:28:12;;;;;;;0.30;0.30;;;13.20;99.90;;;;;;5377208;26;20086;-81
2024/04/09 00:30:40;;;;;;;0.38;0.38;;;13.20;99.90;;;;;;5343507;26;20628;-80
2024/04/09 00:33:07;;;;;;;0.32;0.32;;;13.40;99.90;;;;;;5345476;26;20028;-81
2024/04/09 00:35:35;;;;;;;0.30;0.30;;;13.30;99.90;;;;;;5345694;26;20379;-80
2024/04/09 00:38:06;;;;;;;0.30;0.30;;;13.30;99.90;;;;;;5374491;26;20000;-80
2024/04/09 00:40:33;;;;;;;0.35;0.35;;;13.30;99.90;;;;;;5376506;26;20028;-80
2024/04/09 00:43:02;;;;;;;0.75;0.75;;;13.30;99.90;;;;;;5377139;26;20028;-81
2024/04/09 00:45:31;;;;;;;0.40;0.40;;;13.30;99.90;;;;;;5374628;26;20032;-81
2024/04/09 00:48:00;;;;;;;0.30;0.30;;;13.30;99.90;;;;;;5374529;26;20482;-82
2024/04/09 00:50:28;;;;;;;0.28;0.28;;;13.40;99.90;;;;;;5405861;26;20464;-81
2024/04/09 00:52:58;;;;;;;0.82;0.82;;;13.40;99.90;;;;;;5404417;26;20028;-80
2024/04/09 00:55:27;;;;;;;0.40;0.40;;;13.40;99.90;;;;;;5377135;26;20040;-80
2024/04/09 00:57:56;;;;;;;0.20;0.20;;;13.40;99.90;;;;;;5376314;26;20025;-80
2024/04/09 01:00:23;;;;;;;0.47;0.47;;;13.40;99.90;;;;;;5376373;26;20032;-79
2024/04/09 01:02:51;;;;;;;1.00;0.95;;;13.30;99.90;;;;;;5375889;26;20032;-79
2024/04/09 01:05:18;;;;;;;0.50;0.50;;;13.40;99.90;;;;;;5346820;26;20036;-79
2024/04/09 01:07:45;;;;;;;0.57;0.57;;;13.40;99.90;;;;;;5375415;26;20039;-80
2024/04/09 01:10:12;;;;;;;0.55;0.55;;;13.40;99.90;;;;;;5375159;26;20349;-79
2024/04/09 01:12:39;;;;;;;0.35;0.35;;;13.50;99.90;;;;;;5345798;26;20032;-80
2024/04/09 01:15:06;;;;;;;1.35;1.25;;;13.60;99.90;;;;;;5373595;26;20389;-80
2024/04/09 01:17:34;;;;;;;0.80;0.80;;;13.70;99.90;;;;;;5375362;26;20036;-80
2024/04/09 01:20:02;;;;;;;0.40;0.40;;;13.70;99.90;;;;;;5375490;26;20378;-80
2024/04/09 01:22:30;;;;;;;0.80;0.80;;;13.70;99.90;;;;;;5376683;26;20040;-83
2024/04/09 01:24:57;;;;;;;0.30;0.30;;;13.80;99.90;;;;;;5347238;26;20294;-80
2024/04/09 01:27:25;;;;;;;0.60;0.60;;;13.80;99.90;;;;;;5375810;26;20032;-81
2024/04/09 01:29:53;;;;;;;3.30;0.93;;;13.70;99.90;;;;;;5403065;26;20008;-77
2024/04/09 01:32:21;;;;;;;0.30;0.30;;;13.70;99.90;;;;;;5403561;26;20028;-76
2024/04/09 01:34:48;;;;;;;0.60;0.60;;;13.70;99.90;;;;;;5371909;26;20024;-75
2024/04/09 01:37:17;;;;;;;0.30;0.30;;;13.70;99.90;;;;;;5375645;26;20004;-75
2024/04/09 01:39:48;;;;;;;0.30;0.30;;;13.70;99.90;;;;;;5376706;26;20036;-75
2024/04/09 01:42:15;;;;;;;0.32;0.32;;;13.60;99.90;;;;;;5343953;26;20032;-75
2024/04/09 01:44:43;;;;;;;0.25;0.25;;;13.60;99.90;;;;;;5370661;26;20001;-75
2024/04/09 01:47:11;;;;;;;0.20;0.20;;;13.60;99.90;;;;;;5375285;26;20044;-76
2024/04/09 01:49:38;;;;;;;0.20;0.20;;;13.50;99.90;;;;;;5374554;26;20000;-75
2024/04/09 01:52:05;;;;;;;0.40;0.40;;;13.50;99.90;;;;;;5375017;26;20040;-74
2024/04/09 01:54:32;;;;;;;0.30;0.30;;;13.50;99.90;;;;;;5402434;26;20447;-74
2024/04/09 01:56:59;;;;;;;0.30;0.30;;;13.50;99.90;;;;;;5401275;26;20030;-74
2024/04/09 01:59:26;;;;;;;0.32;0.32;;;13.50;99.90;;;;;;5374804;26;20373;-75
2024/04/09 02:01:53;;;;;;;0.30;0.30;;;13.50;99.90;;;;;;5364013;26;19996;-74
2024/04/09 02:04:20;;;;;;;0.75;0.75;;;13.50;99.90;;;;;;5374398;26;20482;-74
2024/04/09 02:06:47;;;;;;;0.40;0.40;;;13.50;99.90;;;;;;5315062;26;20027;-75
2024/04/09 02:09:13;;;;;;;0.30;0.30;;;13.50;99.90;;;;;;5375633;26;20482;-76
2024/04/09 02:11:40;;;;;;;0.20;0.20;;;13.50;99.90;;;;;;5403275;26;20044;-76
2024/04/09 02:14:07;;;;;;;0.20;0.20;;;13.50;99.90;;;;;;5375204;26;20047;-77
2024/04/09 02:16:34;;;;;;;0.30;0.30;;;13.50;99.90;;;;;;5373586;26;20483;-75
2024/04/09 02:19:02;;;;;;;0.30;0.30;;;13.50;99.90;;;;;;5372522;26;20026;-75
2024/04/09 02:21:31;;;;;;;0.52;0.52;;;13.50;99.90;;;;;;5401825;26;20006;-76
2024/04/09 02:23:58;;;;;;;0.22;0.22;;;13.50;99.90;;;;;;5375945;26;20031;-76
2024/04/09 02:26:26;;;;;;;1.55;0.90;;;13.50;99.90;;;;;;5344146;26;20010;-76
2024/04/09 02:28:53;;;;;;;0.40;0.40;;;13.50;99.90;;;;;;5375416;26;20032;-76
2024/04/09 02:31:20;;;;;;;0.45;0.45;;;13.50;99.90;;;;;;5373569;26;20010;-76
2024/04/09 02:33:48;;;;;;;0.63;0.63;;;13.50;99.90;;;;;;5371015;26;20101;-76
2024/04/09 02:36:14;;;;;;;0.63;0.63;;;13.40;99.90;;;;;;5377086;26;20047;-75
2024/04/09 02:38:43;;;;;;;0.30;0.30;;;13.50;99.90;;;;;;5371507;26;20035;-75
2024/04/09 02:41:13;;;;;;;0.17;0.17;;;13.40;99.90;;;;;;5315209;26;20004;-76
2024/04/09 02:43:40;;;;;;;0.40;0.40;;;13.40;99.90;;;;;;5317185;26;20007;-75
2024/04/09 02:46:07;;;;;;;0.80;0.50;;;13.40;99.90;;;;;;5374933;26;20028;-75
2024/04/09 02:48:35;;;;;;;0.45;0.45;;;13.40;99.90;;;;;;5372562;26;20119;-75
2024/04/09 02:51:03;;;;;;;0.80;0.80;;;13.40;99.90;;;;;;5375814;26;20014;-76
2024/04/09 02:53:32;;;;;;;2.05;0.57;;;13.40;99.90;;;;;;5343465;26;20341;-76
2024/04/09 02:56:07;;;;;;;0.52;0.52;;;13.30;99.90;;;;;;5373371;26;20000;-75
2024/04/09 02:58:35;;;;;;;0.30;0.30;;;13.30;99.90;;;;;;5372446;26;20486;-75
2024/04/09 03:01:10;;;;;;;0.28;0.28;;;13.20;99.90;;;;;;5373009;26;20014;-75
2024/04/09 03:03:38;;;;;;;0.30;0.30;;;13.20;99.90;;;;;;5375299;26;20033;-74
2024/04/09 03:06:14;;;;;;;0.25;0.25;;;13.20;99.90;;;;;;5370481;26;20043;-74
2024/04/09 03:08:42;;;;;;;0.28;0.28;;;13.10;99.90;;;;;;5374136;26;20044;-75
2024/04/09 03:11:19;;;;;;;0.35;0.35;;;13.10;99.90;;;;;;5401552;26;20010;-74
2024/04/09 03:13:52;;;;;;;0.30;0.30;;;13.10;99.90;;;;;;5375031;26;20047;-76
2024/04/09 03:16:20;;;;;;;0.30;0.30;;;13.00;99.90;;;;;;5373322;26;20037;-76
2024/04/09 03:18:50;;;;;;;0.75;0.75;;;13.00;99.90;;;;;;5313705;26;20392;-75
2024/04/09 03:21:17;;;;;;;0.40;0.40;;;13.00;99.90;;;;;;5372876;26;20482;-76
2024/04/09 03:23:44;;;;;;;0.30;0.30;;;13.00;99.90;;;;;;5374271;26;20521;-76
2024/04/09 03:26:12;;;;;;;0.20;0.20;;;13.10;99.90;;;;;;5370252;26;20030;-76
2024/04/09 03:28:40;;;;;;;0.47;0.47;;;13.10;99.90;;;;;;5371082;26;20000;-77
2024/04/09 03:31:07;;;;;;;0.60;0.60;;;13.10;99.90;;;;;;5373040;26;19996;-76
2024/04/09 03:33:35;;;;;;;0.50;0.50;;;13.10;99.90;;;;;;5344039;26;20028;-76
2024/04/09 03:36:04;;;;;;;0.30;0.30;;;13.10;99.90;;;;;;5344946;26;20036;-76
2024/04/09 03:38:31;;;;;;;0.20;0.20;;;13.20;99.90;;;;;;5375115;26;20059;-76
2024/04/09 03:41:00;;;;;;;0.35;0.35;;;13.20;99.90;;;;;;5372968;26;20036;-76
2024/04/09 03:43:27;;;;;;;0.30;0.30;;;13.20;99.90;;;;;;5373710;26;20028;-76
2024/04/09 03:46:03;;;;;;;0.40;0.40;;;13.20;99.90;;;;;;5374425;26;20389;-76
2024/04/09 03:48:30;;;;;;;0.30;0.30;;;13.20;99.90;;;;;;5375934;26;20032;-75
2024/04/09 03:50:58;;;;;;;0.40;0.40;;;13.20;99.90;;;;;;5341954;26;20010;-79
2024/04/09 03:53:25;;;;;;;0.30;0.30;;;13.20;99.90;;;;;;5374415;26;20056;-79
2024/04/09 03:56:00;;;;;;;0.20;0.20;;;13.20;99.90;;;;;;5374368;26;20036;-79
2024/04/09 03:58:30;;;;;;;0.40;0.40;;;13.20;99.90;;;;;;5343088;26;20044;-79
2024/04/09 04:01:04;;;;;;;0.20;0.20;;;13.20;99.90;;;;;;5372950;26;20032;-78
2024/04/09 04:03:32;;;;;;;0.30;0.30;;;13.20;99.90;;;;;;5402040;26;20008;-79
2024/04/09 04:06:00;;;;;;;0.50;0.50;;;13.30;99.90;;;;;;5314266;26;20015;-79
2024/04/09 04:08:35;;;;;;;0.30;0.30;;;13.30;99.90;;;;;;5373177;26;20152;-79
2024/04/09 04:11:05;;;;;;;1.40;1.35;;;13.40;99.90;;;;;;5372115;26;20099;-78
2024/04/09 04:13:34;;;;;;;0.50;0.50;;;13.40;99.90;;;;;;5371779;26;20427;-80
2024/04/09 04:16:05;;;;;;;1.00;0.90;;;13.40;99.90;;;;;;5372027;26;20000;-80
2024/04/09 04:18:36;;;;;;;0.52;0.52;;;13.50;99.90;;;;;;5372753;26;20029;-79
2024/04/09 04:21:04;;;;;;;0.30;0.30;;;13.60;99.90;;;;;;5344461;26;20011;-78
2024/04/09 04:23:31;;;;;;;0.40;0.40;;;13.60;99.90;;;;;;5378259;26;20935;-79
2024/04/09 04:26:04;;;;;;;0.73;0.73;;;13.60;99.90;;;;;;5375356;26;20024;-78
2024/04/09 04:28:35;;;;;;;0.65;0.65;;;13.60;99.90;;;;;;5377168;26;20385;-79
2024/04/09 04:31:06;;;;;;;0.43;0.43;;;13.60;99.90;;;;;;5375786;26;20000;-80
2024/04/09 04:33:34;;;;;;;3.10;0.77;;;13.60;99.90;;;;;;5347192;26;20000;-81
2024/04/09 04:36:01;;;;;;;0.60;0.60;;;13.60;99.90;;;;;;5404812;26;20028;-80
2024/04/09 04:38:28;;;;;;;3.65;2.25;;;13.70;99.90;;;;;;5380591;26;20035;-79
2024/04/09 04:40:55;;;;;;;0.73;0.73;;;13.70;99.90;;;;;;5376097;26;20472;-79
2024/04/09 04:43:23;;;;;;;1.65;1.55;;;13.70;99.90;;;;;;5374121;26;20022;-78
2024/04/09 04:45:56;;;;;;;0.50;0.50;;;13.70;99.90;;;;;;5346398;26;20107;-79
2024/04/09 04:48:23;;;;;;;4.03;1.05;;;13.70;99.90;;;;;;5403187;26;20494;-81
2024/04/09 04:50:52;;;;;;;0.40;0.40;;;13.70;99.90;;;;;;5345986;26;20376;-78
2024/04/09 04:53:20;;;;;;;0.70;0.70;;;13.80;99.90;;;;;;5345447;26;20357;-78
2024/04/09 04:55:49;;;;;;;0.30;0.30;;;13.70;99.90;;;;;;5372607;26;20008;-81
2024/04/09 04:58:17;;;;;;;0.50;0.50;;;13.80;99.90;;;;;;5373344;26;20036;-79
2024/04/09 05:00:43;;;;;;;1.52;0.95;;;13.80;99.90;;;;;;5374003;26;20008;-78
2024/04/09 05:03:11;;;;;;;0.73;0.73;;;13.80;99.90;;;;;;5373405;26;20044;-77
2024/04/09 05:05:38;;;;;;;0.40;0.40;;;13.80;99.90;;;;;;5376096;26;20028;-76
2024/04/09 05:08:05;;;;;;;0.60;0.60;;;13.80;99.90;;;;;;5371102;26;21571;-77
2024/04/09 05:10:32;;;;;;;0.73;0.52;;;13.70;99.90;;;;;;5372052;26;20022;-77
2024/04/09 05:13:00;;;;;;;0.47;0.40;;;13.70;99.90;;;;;;5342303;26;20000;-77
2024/04/09 05:15:27;;;;;;;0.68;0.45;;;13.60;99.90;;;;;;5315236;26;20000;-76
2024/04/09 05:17:54;;;;;;;0.50;0.50;;;13.60;99.90;;;;;;5374902;26;20040;-76
2024/04/09 05:20:26;;;;;;;1.00;0.70;;;13.60;99.90;;;;;;5374962;26;20027;-76
2024/04/09 05:22:53;;;;;;;0.60;0.60;;;13.60;99.90;;;;;;5375310;26;20388;-77
2024/04/09 05:25:20;;;;;;;1.67;0.50;;;13.50;99.90;;;;;;5372874;26;20033;-77
2024/04/09 05:27:47;;;;;;;0.30;0.30;;;13.50;99.90;;;;;;5401629;26;20004;-77
2024/04/09 05:30:14;;;;;;;0.22;0.22;;;13.40;99.90;;;;;;5314912;26;20468;-78
2024/04/09 05:32:42;;;;;;;0.22;0.22;;;13.40;99.90;;;;;;5374680;26;20014;-77
2024/04/09 05:35:10;;;;;;;0.60;0.60;;;13.30;99.90;;;;;;5381827;26;20032;-75
2024/04/09 05:37:38;;;;;;;0.40;0.40;;;13.30;99.90;;;;;;5374306;26;20031;-77
2024/04/09 05:40:09;;;;;;;0.40;0.40;;;13.30;99.90;;;;;;5372540;26;20015;-76
2024/04/09 05:42:46;;;;;;;0.40;0.40;;;13.30;99.90;;;;;;5345911;26;20000;-76
2024/04/09 05:45:16;;;;;;;0.40;0.40;;;13.20;99.90;;;;;;5400762;26;19996;-76
2024/04/09 05:47:43;;;;;;;0.30;0.30;;;13.20;99.90;;;;;;5400094;26;20000;-77
2024/04/09 05:50:10;;;;;;;0.60;0.60;;;13.20;99.90;;;;;;5370256;26;20004;-76
2024/04/09 05:52:37;;;;;;;0.52;0.52;;;13.20;99.90;;;;;;5373339;26;20000;-77
2024/04/09 05:55:06;;;;;;;0.20;0.20;;;13.20;99.90;;;;;;5342502;26;20472;-76
2024/04/09 05:57:39;;;;;;;0.40;0.40;;;13.20;99.90;;;;;;5372948;26;20004;-76
2024/04/09 06:00:09;;;;;;;0.30;0.30;;;13.10;99.90;;;;;;5373330;26;19996;-76
2024/04/09 06:02:36;;;;;;;0.45;0.45;;;13.10;99.90;;;;;;5371790;26;20468;-75
2024/04/09 06:05:04;;;;;;;0.20;0.20;;;13.00;99.90;;;;;;5372316;26;20018;-76
2024/04/09 06:07:31;;;;;;;0.30;0.30;;;13.00;99.90;;;;;;5374061;26;20361;-76
2024/04/09 06:09:59;;;;;;;0.40;0.40;;;13.00;99.90;;;;;;5313403;26;20000;-80
2024/04/09 06:12:26;;;;;;;0.30;0.30;;;13.00;99.90;;;;;;5373387;26;20000;-81
2024/04/09 06:14:53;;;;;;;0.28;0.28;;;13.00;99.90;;;;;;5401818;26;20478;-80
2024/04/09 06:17:21;;;;;;;0.30;0.30;;;12.90;99.90;;;;;;5372868;26;20053;-79
2024/04/09 06:19:48;;;;;;;0.60;0.60;;;12.90;99.90;;;;;;5341792;26;20022;-80
2024/04/09 06:22:15;;;;;;;0.20;0.20;;;12.90;99.90;;;;;;5374692;26;20414;-80
2024/04/09 06:24:43;;;;;;;0.57;0.57;;;12.90;99.90;;;;;;5368674;26;20662;-79
2024/04/09 06:27:10;;;;;;;0.30;0.30;;;12.90;99.90;;;;;;5366654;26;20012;-80
2024/04/09 06:29:37;;;;;;;0.30;0.30;;;12.80;99.90;;;;;;5370914;26;20018;-79
2024/04/09 06:32:04;;;;;;;1.38;1.30;;;12.80;99.90;;;;;;5339804;26;20513;-80
2024/04/09 06:34:32;;;;;;;0.40;0.40;;;12.80;99.90;;;;;;5340096;26;20016;-80
2024/04/09 06:37:02;;;;;;;0.43;0.43;;;12.80;99.90;;;;;;5341264;26;20320;-80
2024/04/09 06:39:29;;;;;;;0.60;0.60;;;12.80;99.90;;;;;;5372907;26;20028;-81
2024/04/09 06:41:56;;;;;;;0.30;0.30;;;12.80;99.90;;;;;;5367505;26;20004;-80
2024/04/09 06:44:23;;;;;;;0.20;0.20;;;12.80;99.90;;;;;;5339189;26;20016;-80
2024/04/09 06:46:50;;;;;;;0.47;0.47;;;12.80;99.90;;;;;;5341288;26;19996;-80
2024/04/09 06:49:17;;;;;;;0.57;0.57;;;12.90;99.90;;;;;;5373944;26;20051;-81
2024/04/09 06:51:45;;;;;;;0.50;0.50;;;12.90;99.90;;;;;;5372826;26;20000;-82
2024/04/09 06:54:12;;;;;;;0.50;0.50;;;12.90;99.90;;;;;;5346036;26;20018;-82
2024/04/09 06:56:39;;;;;;;0.22;0.22;;;12.90;99.90;;;;;;5374923;26;20028;-80
2024/04/09 06:59:06;;;;;;;2.45;1.67;;;13.00;99.90;;;;;;5372512;26;20385;-81
2024/04/09 07:01:33;;;;;;;0.20;0.20;;;12.90;99.90;;;;;;5371306;26;20018;-81
2024/04/09 07:04:00;;;;;;;0.20;0.20;;;13.00;99.90;;;;;;5342953;26;20044;-80
2024/04/09 07:06:27;;;;;;;0.77;0.77;;;13.00;99.90;;;;;;5342447;26;20004;-81
2024/04/09 07:08:57;;;;;;;0.40;0.40;;;13.10;99.90;;;;;;5339698;26;20047;-81
2024/04/09 07:11:25;;;;;;;0.40;0.40;;;13.20;99.90;;;;;;5370443;26;20004;-82
2024/04/09 07:13:52;;;;;;;0.25;0.25;;;13.10;99.90;;;;;;5372761;26;20005;-81
2024/04/09 07:16:19;;;;;;;0.20;0.20;;;13.10;99.90;;;;;;5373024;26;20040;-81
2024/04/09 07:18:46;;;;;;;0.30;0.30;;;13.20;99.90;;;;;;5342405;26;20000;-81
2024/04/09 07:21:13;;;;;;;0.25;0.25;;;13.20;99.90;;;;;;5369538;26;20014;-76
2024/04/09 07:23:40;;;;;;;0.30;0.30;;;13.20;99.90;;;;;;5372732;26;20036;-76
2024/04/09 07:26:08;;;;;;;0.30;0.30;;;13.30;99.90;;;;;;5342955;26;19996;-76
2024/04/09 07:28:35;;;;;;;0.30;0.30;;;13.30;99.90;;;;;;5370638;26;20028;-76
2024/04/09 07:31:03;;;;;;;0.35;0.35;;;13.30;99.90;;;;;;5339113;26;20012;-74
2024/04/09 07:33:30;;;;;;;0.30;0.30;;;13.20;99.90;;;;;;5367968;26;20015;-74
2024/04/09 07:36:00;;;;;;;0.47;0.47;;;13.20;99.90;;;;;;5340891;26;20008;-76
2024/04/09 07:38:27;;;;;;;0.38;0.38;;;13.20;99.90;;;;;;5370468;26;20001;-77
2024/04/09 07:40:54;;;;;;;0.40;0.40;;;13.10;99.90;;;;;;5338668;26;20008;-76
2024/04/09 07:43:21;;;;;;;0.30;0.30;;;13.00;99.90;;;;;;5369135;26;20112;-76
2024/04/09 07:45:54;;;;;;;0.38;0.38;;;12.90;99.90;;;;;;5372017;26;20487;-74
2024/04/09 07:48:21;;;;;;;0.30;0.30;;;12.90;99.90;;;;;;5370935;26;20468;-77
2024/04/09 07:50:48;;;;;;;0.20;0.20;;;12.80;99.90;;;;;;5339921;26;20011;-76
2024/04/09 07:53:16;;;;;;;0.30;0.30;;;12.80;99.90;;;;;;5398855;26;20361;-77
2024/04/09 07:55:44;;;;;;;0.70;0.70;;;12.90;99.90;;;;;;5375656;26;20022;-78
2024/04/09 07:58:12;;;;;;;0.28;0.28;;;12.90;99.90;;;;;;5377658;26;20052;-76
2024/04/09 08:00:39;;;;;;;0.40;0.40;;;12.90;99.90;;;;;;5375595;26;20486;-76
2024/04/09 08:03:06;;;;;;;0.60;0.60;;;13.00;99.90;;;;;;5374698;26;20032;-77
2024/04/09 08:05:36;;;;;;;0.40;0.40;;;13.10;99.90;;;;;;5341821;26;20004;-77
2024/04/09 08:08:03;;;;;;;0.30;0.30;;;13.20;99.90;;;;;;5361558;26;20022;-76
2024/04/09 08:10:31;;;;;;;0.30;0.30;;;13.40;99.90;;;;;;5368335;26;20426;-77
2024/04/09 08:13:00;;;;;;;0.30;0.30;;;13.40;99.90;;;;;;5328652;26;20008;-76
2024/04/09 08:15:28;;;;;;;0.30;0.30;;;13.50;99.90;;;;;;5378103;26;20023;-76
2024/04/09 08:17:56;;;;;;;0.20;0.20;;;13.40;99.90;;;;;;5356776;26;19999;-76
2024/04/09 08:20:24;;;;;;;1.85;0.75;;;13.30;99.90;;;;;;5348952;26;20032;-76
2024/04/09 08:22:52;;;;;;;0.20;0.20;;;13.30;99.90;;;;;;5376863;26;20477;-74
2024/04/09 08:25:20;;;;;;;0.20;0.20;;;13.30;99.90;;;;;;5369152;26;20056;-74
2024/04/09 08:27:48;;;;;;;0.20;0.20;;;13.30;99.90;;;;;;5349501;26;20024;-72
2024/04/09 08:30:23;;;;;;;0.98;0.98;;;13.30;99.90;;;;;;5387204;26;20024;-79
2024/04/09 08:32:51;;;;;;;0.60;0.60;;;13.30;99.90;;;;;;5362007;26;20010;-78
2024/04/09 08:35:19;;;;;;;0.40;0.40;;;13.20;99.90;;;;;;5323064;26;20051;-78
2024/04/09 08:37:47;;;;;;;0.50;0.43;;;13.10;99.90;;;;;;5396705;26;20372;-78
2024/04/09 08:40:18;;;;;;;0.38;0.38;;;13.10;99.90;;;;;;5389518;26;20027;-77
2024/04/09 08:42:50;;;;;;;0.32;0.32;;;13.00;99.90;;;;;;5370742;26;20007;-78
2024/04/09 08:45:18;;;;;;;0.55;0.55;;;13.00;99.90;;;;;;5386684;26;20564;-77
2024/04/09 08:47:48;;;;;;;0.70;0.70;;;13.00;99.90;;;;;;5314560;26;20024;-78
2024/04/09 08:50:15;;;;;;;0.50;0.50;;;12.90;99.90;;;;;;5371153;26;20273;-77
2024/04/09 08:52:43;;;;;;;0.50;0.50;;;12.90;99.90;;;;;;5342037;26;20012;-77
2024/04/09 08:55:10;;;;;;;0.40;0.40;;;12.90;99.90;;;;;;5366438;26;20001;-77
2024/04/09 08:57:38;;;;;;;0.57;0.57;;;13.00;99.90;;;;;;5383766;26;20527;-79
2024/04/09 09:00:06;;;;;;;0.30;0.30;;;13.00;99.90;;;;;;5368230;26;20019;-78
2024/04/09 09:02:37;;;;;;;0.88;0.85;;;13.10;99.90;;;;;;5370348;26;19996;-77
2024/04/09 09:05:18;;;;;;;0.40;0.40;;;13.30;99.90;;;;;;5369574;26;20011;-78
2024/04/09 09:07:57;;;;;;;0.63;0.63;;;13.40;99.90;;;;;;5365955;26;20335;-78
2024/04/09 09:10:24;;;;;;;0.90;0.85;;;13.40;99.90;;;;;;5366975;26;20476;-77
2024/04/09 09:13:02;;;;;;;0.50;0.50;;;13.40;99.90;;;;;;5405964;26;20020;-76
2024/04/09 09:15:29;;;;;;;3.17;1.45;;;13.30;99.90;;;;;;5372192;26;20028;-79
2024/04/09 09:17:56;;;;;;;0.30;0.30;;;13.20;99.90;;;;;;5369612;26;20032;-77
2024/04/09 09:20:23;;;;;;;0.40;0.40;;;13.50;99.90;;;;;;5338987;26;20495;-78
2024/04/09 09:22:57;;;;;;;0.40;0.40;;;13.70;99.90;;;;;;5372846;26;20032;-78
2024/04/09 09:25:25;;;;;;;0.73;0.73;;;13.90;99.90;;;;;;5378236;26;20003;-78
2024/04/09 09:28:06;;;;;;;0.40;0.40;;;14.10;99.90;;;;;;5361843;26;20008;-78
2024/04/09 09:30:39;;;;;;;8.38;0.90;;;14.30;99.90;;;;;;5340288;26;20000;-79
2024/04/09 09:33:12;;;;;;;0.50;0.50;;;14.50;99.90;;;;;;5372483;26;21545;-78
2024/04/09 09:35:42;;;;;;;0.30;0.30;;;14.70;99.90;;;;;;5336207;26;20007;-79
2024/04/09 09:38:09;;;;;;;1.45;1.38;;;14.80;99.90;;;;;;5372378;26;20020;-78
2024/04/09 09:40:36;;;;;;;0.70;0.70;;;14.70;99.90;;;;;;5340427;26;20018;-78
2024/04/09 09:43:06;;;;;;;0.50;0.50;;;14.70;99.90;;;;;;5403942;26;20004;-77
2024/04/09 09:45:33;;;;;;;1.02;1.02;;;14.50;99.90;;;;;;5328583;26;20018;-78
2024/04/09 09:48:01;;;;;;;0.30;0.30;;;14.50;99.90;;;;;;5349987;26;20417;-77
2024/04/09 09:50:29;;;;;;;1.00;0.95;;;14.60;99.90;;;;;;5382003;26;20004;-77
2024/04/09 09:52:57;;;;;;;1.23;1.13;;;14.80;99.90;;;;;;5342466;26;20004;-78
2024/04/09 09:55:25;;;;;;;0.40;0.40;;;14.90;99.90;;;;;;5377213;26;20474;-77
2024/04/09 09:58:00;;;;;;;0.22;0.22;;;15.00;99.90;;;;;;5369011;26;20010;-77
2024/04/09 10:00:28;;;;;;;0.25;0.25;;;15.20;99.90;;;;;;5394761;26;20027;-78
2024/04/09 10:02:55;;;;;;;4.03;2.58;;;15.40;99.90;;;;;;5369372;26;20024;-77
2024/04/09 10:05:23;;;;;;;0.28;0.28;;;15.70;99.90;;;;;;5405689;26;20027;-77
2024/04/09 10:07:50;;;;;;;0.63;0.63;;;15.90;99.90;;;;;;5377671;26;20043;-77
2024/04/09 10:10:25;;;;;;;7.38;0.75;;;16.00;99.90;;;;;;5369073;26;20033;-78
2024/04/09 10:12:55;;;;;;;0.30;0.30;;;16.10;99.90;;;;;;5392929;26;20371;-77
2024/04/09 10:15:30;;;;;;;0.80;0.43;;;16.10;99.90;;;;;;5346403;26;20000;-77
2024/04/09 10:18:04;;;;;;;0.30;0.30;;;16.10;99.90;;;;;;5374107;26;20000;-77
2024/04/09 10:20:35;;;;;;;0.40;0.40;;;16.20;99.90;;;;;;5376259;26;20095;-76
2024/04/09 10:23:04;;;;;;;0.25;0.25;;;16.20;99.90;;;;;;5347191;26;20040;-81
2024/04/09 10:25:37;;;;;;;0.30;0.30;;;16.00;99.90;;;;;;5375343;26;20030;-77
2024/04/09 10:28:10;;;;;;;0.20;0.20;;;15.90;99.90;;;;;;5335152;26;20114;-78
2024/04/09 10:30:43;;;;;;;0.28;0.28;;;15.70;99.90;;;;;;5378081;26;20486;-79
2024/04/09 10:33:11;;;;;;;0.60;0.60;;;15.70;99.90;;;;;;5313731;26;20015;-78
2024/04/09 10:35:44;;;;;;;0.30;0.30;;;15.60;99.90;;;;;;5374722;26;20047;-79
2024/04/09 10:38:11;;;;;;;0.25;0.25;;;15.60;99.90;;;;;;5377569;26;20028;-79
2024/04/09 10:40:38;;;;;;;0.65;0.60;;;15.70;99.90;;;;;;5349109;26;20499;-79
2024/04/09 10:43:10;;;;;;;0.50;0.50;;;15.70;99.90;;;;;;5316407;26;20487;-78
2024/04/09 10:45:37;;;;;;;0.28;0.28;;;15.70;99.90;;;;;;5378426;26;20478;-78
2024/04/09 10:48:07;;;;;;;0.25;0.25;;;15.90;99.90;;;;;;5373242;26;20032;-79
2024/04/09 10:50:34;;;;;;;0.22;0.22;;;16.00;99.90;;;;;;5373093;26;20032;-79
2024/04/09 10:53:02;;;;;;;0.30;0.30;;;16.20;99.90;;;;;;5369846;26;20026;-79
2024/04/09 10:55:30;;;;;;;0.30;0.30;;;16.20;99.90;;;;;;5365863;26;20012;-79
2024/04/09 10:57:57;;;;;;;0.20;0.20;;;16.10;99.90;;;;;;5373032;26;20033;-79
2024/04/09 11:00:25;;;;;;;0.28;0.28;;;16.20;99.90;;;;;;5344048;26;20014;-79
2024/04/09 11:02:53;;;;;;;0.30;0.30;;;16.40;99.90;;;;;;5368112;26;20018;-78
2024/04/09 11:05:20;;;;;;;0.30;0.30;;;16.30;99.90;;;;;;5399517;26;20369;-78
2024/04/09 11:07:48;;;;;;;0.20;0.20;;;16.20;99.90;;;;;;5371110;26;20570;-79
2024/04/09 11:10:17;;;;;;;0.30;0.30;;;16.00;99.90;;;;;;5372925;26;20032;-78
2024/04/09 11:12:49;;;;;;;0.28;0.28;;;15.80;99.90;;;;;;5371678;26;20040;-78
2024/04/09 11:15:16;;;;;;;0.40;0.40;;;15.60;99.90;;;;;;5373402;26;20362;-79
2024/04/09 11:17:43;;;;;;;0.43;0.43;;;15.40;99.90;;;;;;5397587;26;20087;-80
2024/04/09 11:20:14;;;;;;;0.30;0.30;;;15.20;99.90;;;;;;5370455;26;20008;-79
2024/04/09 11:22:41;;;;;;;0.95;0.95;;;15.10;99.90;;;;;;5370074;26;20014;-79
2024/04/09 11:25:15;;;;;;;0.88;0.88;;;14.90;99.90;;;;;;5372303;26;20408;-79
2024/04/09 11:27:44;;;;;;;0.38;0.38;;;15.00;99.90;;;;;;5371761;26;20018;-78
2024/04/09 11:30:25;;;;;;;0.30;0.30;;;15.00;99.90;;;;;;5376358;26;20046;-80
2024/04/09 11:32:54;;;;;;;0.82;0.77;;;14.90;99.90;;;;;;5347289;26;20040;-80
2024/04/09 11:35:23;;;;;;;0.30;0.30;;;14.90;99.90;;;;;;5376876;26;20714;-79
2024/04/09 11:37:55;;;;;;;0.20;0.20;;;14.90;99.90;;;;;;5380601;26;20047;-81
2024/04/09 11:40:23;;;;;;;0.20;0.20;;;15.00;99.90;;;;;;5376439;26;20048;-80
2024/04/09 11:42:51;;;;;;;0.20;0.20;;;15.10;99.90;;;;;;5377277;26;20024;-80
2024/04/09 11:45:29;;;;;;;0.40;0.40;;;15.10;99.90;;;;;;5378290;26;20572;-80
2024/04/09 11:47:57;;;;;;;0.40;0.40;;;15.10;99.90;;;;;;5377079;26;20375;-79
2024/04/09 11:50:25;;;;;;;0.40;0.40;;;15.00;99.90;;;;;;5372699;26;20733;-79
2024/04/09 11:52:52;;;;;;;0.22;0.22;;;15.10;99.90;;;;;;5391493;26;20008;-81
2024/04/09 11:55:19;;;;;;;0.40;0.40;;;15.20;99.90;;;;;;5366013;26;21026;-80
2024/04/09 11:57:47;;;;;;;0.20;0.20;;;15.20;99.90;;;;;;5354206;26;20019;-78
2024/04/09 12:00:14;;;;;;;0.20;0.20;;;15.20;99.90;;;;;;5353249;26;20370;-80
2024/04/09 12:02:43;;;;;;;0.28;0.28;;;15.00;99.90;;;;;;5341010;26;20013;-77
2024/04/09 12:05:13;;;;;;;0.25;0.25;;;14.90;99.90;;;;;;5336423;26;20023;-76
2024/04/09 12:07:41;;;;;;;0.30;0.30;;;14.90;99.90;;;;;;5337399;26;20023;-78
2024/04/09 12:10:10;;;;;;;0.30;0.30;;;15.00;99.90;;;;;;5338879;26;20477;-77
2024/04/09 12:12:40;;;;;;;0.68;0.43;;;15.10;99.90;;;;;;5335466;26;20009;-76
2024/04/09 12:15:08;;;;;;;0.20;0.20;;;15.10;99.90;;;;;;5337730;26;20451;-78
2024/04/09 12:17:35;;;;;;;0.32;0.32;;;15.20;99.90;;;;;;5339345;26;20499;-77
2024/04/09 12:20:02;;;;;;;0.20;0.20;;;15.20;99.90;;;;;;5335379;26;20479;-76
2024/04/09 12:22:30;;;;;;;0.20;0.20;;;15.30;99.90;;;;;;5340055;26;20562;-77
2024/04/09 12:24:57;;;;;;;0.20;0.20;;;15.30;99.90;;;;;;5338111;26;20136;-77
2024/04/09 12:27:24;;;;;;;0.57;0.57;;;15.20;99.90;;;;;;5333423;26;20009;-77
2024/04/09 12:29:52;;;;;;;0.20;0.20;;;15.30;99.90;;;;;;5334571;26;20023;-75
2024/04/09 12:32:20;;;;;;;0.20;0.20;;;15.30;99.90;;;;;;5330475;26;20004;-76
2024/04/09 12:34:48;;;;;;;0.20;0.20;;;15.40;99.90;;;;;;5341337;26;20369;-76
2024/04/09 12:37:15;;;;;;;0.50;0.50;;;15.40;99.90;;;;;;5337817;26;20013;-77
2024/04/09 12:39:43;;;;;;;2.65;0.90;;;15.20;99.90;;;;;;5335197;26;20005;-77
2024/04/09 12:42:10;;;;;;;0.20;0.20;;;15.10;99.90;;;;;;5334436;26;21930;-76
2024/04/09 12:44:37;;;;;;;1.00;0.57;;;15.00;99.90;;;;;;5330976;26;20008;-76
2024/04/09 12:47:05;;;;;;;1.80;0.70;;;15.00;99.90;;;;;;5339121;26;20044;-76
2024/04/09 12:49:33;;;;;;;0.35;0.35;;;14.90;99.90;;;;;;5339982;26;20009;-74
2024/04/09 12:52:04;;;;;;;0.30;0.30;;;14.80;99.90;;;;;;5337124;26;20044;-76
2024/04/09 12:54:31;;;;;;;0.20;0.20;;;14.80;99.90;;;;;;5337877;26;20041;-79